createdAt,value
2018-06-15T00:00:06.116Z,9.53
2018-06-15T00:02:35.273Z,8.13
2018-06-15T00:05:03.666Z,5.40
2018-06-15T00:07:31.981Z,4.60
2018-06-15T00:10:00.974Z,4.33
2018-06-15T00:12:29.317Z,3.70
2018-06-15T00:14:57.633Z,3.80
2018-06-15T00:17:25.948Z,3.70
2018-06-15T00:19:54.309Z,3.97
2018-06-15T00:22:23.263Z,4.70
2018-06-15T00:24:51.647Z,8.33
2018-06-15T00:27:20.010Z,6.23
2018-06-15T00:29:48.361Z,4.60
2018-06-15T00:32:16.744Z,4.00
2018-06-15T00:34:45.101Z,3.70
2018-06-15T00:37:13.457Z,5.30
2018-06-15T00:39:42.214Z,4.37
2018-06-15T00:42:10.532Z,4.23
2018-06-15T00:44:39.099Z,3.73
2018-06-15T00:47:07.539Z,4.70
2018-06-15T00:49:35.841Z,5.47
2018-06-15T00:52:04.159Z,5.27
2018-06-15T00:54:32.584Z,4.50
2018-06-15T00:57:12.353Z,4.60
2018-06-15T00:59:41.062Z,4.03
2018-06-15T01:02:09.577Z,4.57
2018-06-15T01:04:37.895Z,4.47
2018-06-15T01:07:06.277Z,4.60
2018-06-15T01:09:34.641Z,4.17
2018-06-15T01:12:02.987Z,4.47
2018-06-15T01:14:31.309Z,4.13
2018-06-15T01:16:59.761Z,4.03
2018-06-15T01:19:28.129Z,3.93
2018-06-15T01:21:56.449Z,3.90
2018-06-15T01:24:24.778Z,3.87
2018-06-15T01:26:53.206Z,3.80
2018-06-15T01:29:21.641Z,3.93
2018-06-15T01:31:49.995Z,4.17
2018-06-15T01:34:18.293Z,4.67
2018-06-15T01:36:46.727Z,4.50
2018-06-15T01:39:15.029Z,4.30
2018-06-15T01:41:43.380Z,4.00
2018-06-15T01:44:11.674Z,3.97
2018-06-15T01:46:40.086Z,3.90
2018-06-15T01:49:08.389Z,3.83
2018-06-15T01:51:36.805Z,4.03
2018-06-15T01:54:05.153Z,3.47
2018-06-15T01:56:33.736Z,4.67
2018-06-15T01:59:01.805Z,4.07
2018-06-15T02:01:30.257Z,4.53
2018-06-15T02:03:58.638Z,4.27
2018-06-15T02:06:26.991Z,5.60
2018-06-15T02:08:55.297Z,6.43
2018-06-15T02:11:24.675Z,7.87
2018-06-15T02:13:52.981Z,7.43
2018-06-15T02:16:21.430Z,8.77
2018-06-15T02:18:49.809Z,8.43
2018-06-15T02:21:18.225Z,8.13
2018-06-15T02:23:46.574Z,7.87
2018-06-15T02:26:15.057Z,6.83
2018-06-15T02:28:43.414Z,6.30
2018-06-15T02:31:11.785Z,7.20
2018-06-15T02:33:40.150Z,6.23
2018-06-15T02:36:08.565Z,6.07
2018-06-15T02:38:36.939Z,6.40
2018-06-15T02:41:05.318Z,5.70
2018-06-15T02:43:33.767Z,6.43
2018-06-15T02:46:02.183Z,5.80
2018-06-15T02:48:30.578Z,5.97
2018-06-15T02:50:58.950Z,5.73
2018-06-15T02:53:27.339Z,5.83
2018-06-15T02:55:55.778Z,5.17
2018-06-15T02:58:24.167Z,5.90
2018-06-15T03:00:52.654Z,5.70
2018-06-15T03:03:21.166Z,6.00
2018-06-15T03:05:49.565Z,5.90
2018-06-15T03:08:17.934Z,4.90
2018-06-15T03:10:46.301Z,4.93
2018-06-15T03:13:14.666Z,4.23
2018-06-15T03:15:43.027Z,3.83
2018-06-15T03:18:11.410Z,4.17
2018-06-15T03:20:39.774Z,4.20
2018-06-15T03:23:08.169Z,4.53
2018-06-15T03:25:36.521Z,4.30
2018-06-15T03:28:04.947Z,4.17
2018-06-15T03:30:33.293Z,4.20
2018-06-15T03:33:01.698Z,3.53
2018-06-15T03:35:30.113Z,3.70
2018-06-15T03:37:58.517Z,3.60
2018-06-15T03:40:26.930Z,3.77
2018-06-15T03:42:55.426Z,3.87
2018-06-15T03:45:23.762Z,4.40
2018-06-15T03:47:52.131Z,3.83
2018-06-15T03:50:20.482Z,3.77
2018-06-15T03:52:48.898Z,3.63
2018-06-15T03:55:17.266Z,4.03
2018-06-15T03:57:45.621Z,3.63
2018-06-15T04:00:14.035Z,4.10
2018-06-15T04:02:42.440Z,3.73
2018-06-15T04:05:10.838Z,3.73
2018-06-15T04:07:39.258Z,3.90
2018-06-15T04:10:07.928Z,3.93
2018-06-15T04:12:36.314Z,4.63
2018-06-15T04:15:04.671Z,4.63
2018-06-15T04:17:33.133Z,4.63
2018-06-15T04:20:01.586Z,4.20
2018-06-15T04:22:30.043Z,3.90
2018-06-15T04:24:58.166Z,4.13
2018-06-15T04:27:26.674Z,3.97
2018-06-15T04:29:55.089Z,3.90
2018-06-15T04:32:23.677Z,3.30
2018-06-15T04:34:52.030Z,4.23
2018-06-15T04:37:20.414Z,3.47
2018-06-15T04:39:48.803Z,3.17
2018-06-15T04:42:17.169Z,3.17
2018-06-15T04:44:45.582Z,3.00
2018-06-15T04:47:13.925Z,3.20
2018-06-15T04:49:42.302Z,3.03
2018-06-15T04:52:10.750Z,2.97
2018-06-15T04:54:39.207Z,3.80
2018-06-15T04:57:07.564Z,3.80
2018-06-15T04:59:35.957Z,4.13
2018-06-15T05:02:04.298Z,3.40
2018-06-15T05:04:32.855Z,3.60
2018-06-15T05:07:01.210Z,3.27
2018-06-15T05:09:29.584Z,3.75
2018-06-15T05:11:57.946Z,4.07
2018-06-15T05:14:26.312Z,4.80
2018-06-15T05:16:54.725Z,4.07
2018-06-15T05:19:23.146Z,4.17
2018-06-15T05:21:51.537Z,4.40
2018-06-15T05:24:19.926Z,4.40
2018-06-15T05:26:48.386Z,4.72
2018-06-15T05:29:16.862Z,5.10
2018-06-15T05:31:45.219Z,4.20
2018-06-15T05:34:13.589Z,4.33
2018-06-15T05:36:41.991Z,4.30
2018-06-15T05:39:11.223Z,4.28
2018-06-15T05:41:39.896Z,3.70
2018-06-15T05:44:08.393Z,4.00
2018-06-15T05:46:36.764Z,5.45
2018-06-15T05:49:05.378Z,5.78
2018-06-15T05:51:33.755Z,4.97
2018-06-15T05:54:02.169Z,5.33
2018-06-15T05:56:30.558Z,5.25
2018-06-15T05:58:58.985Z,4.95
2018-06-15T06:01:27.395Z,5.65
2018-06-15T06:03:55.973Z,4.95
2018-06-15T06:06:24.292Z,5.60
2018-06-15T06:08:52.703Z,5.20
2018-06-15T06:11:21.108Z,4.72
2018-06-15T06:13:49.475Z,5.55
2018-06-15T06:16:18.018Z,5.50
2018-06-15T06:18:46.097Z,4.00
2018-06-15T06:21:14.534Z,5.83
2018-06-15T06:23:42.918Z,6.20
2018-06-15T06:26:11.500Z,5.90
2018-06-15T06:28:39.737Z,6.75
2018-06-15T06:31:08.569Z,6.78
2018-06-15T06:33:38.222Z,6.75
2018-06-15T06:36:06.754Z,5.58
2018-06-15T06:38:35.238Z,6.72
2018-06-15T06:41:04.087Z,5.33
2018-06-15T06:43:32.444Z,6.67
2018-06-15T06:46:01.574Z,6.05
2018-06-15T06:48:29.937Z,6.17
2018-06-15T06:50:58.446Z,5.47
2018-06-15T06:53:26.834Z,6.70
2018-06-15T06:55:55.254Z,6.40
2018-06-15T06:58:25.848Z,5.45
2018-06-15T07:00:54.519Z,8.75
2018-06-15T07:03:22.865Z,6.72
2018-06-15T07:05:51.274Z,7.30
2018-06-15T07:08:19.689Z,7.20
2018-06-15T07:10:48.177Z,7.28
2018-06-15T07:13:16.551Z,8.73
2018-06-15T07:15:45.358Z,6.40
2018-06-15T07:18:13.730Z,6.97
2018-06-15T07:20:42.139Z,8.50
2018-06-15T07:23:10.352Z,6.53
2018-06-15T07:25:38.783Z,6.37
2018-06-15T07:28:07.169Z,9.30
2018-06-15T07:30:35.638Z,6.50
2018-06-15T07:33:04.026Z,5.47
2018-06-15T07:35:32.580Z,6.05
2018-06-15T07:38:01.368Z,5.22
2018-06-15T07:40:29.728Z,5.62
2018-06-15T07:42:58.089Z,5.53
2018-06-15T07:45:26.182Z,6.72
2018-06-15T07:47:54.730Z,5.95
2018-06-15T07:50:23.222Z,6.37
2018-06-15T07:52:51.739Z,6.80
2018-06-15T07:55:19.876Z,5.95
2018-06-15T07:57:48.353Z,5.20
2018-06-15T08:00:16.837Z,4.67
2018-06-15T08:02:45.356Z,6.12
2018-06-15T08:05:13.765Z,5.80
2018-06-15T08:07:42.277Z,5.95
2018-06-15T08:10:10.721Z,8.80
2018-06-15T08:12:39.134Z,8.50
2018-06-15T08:15:07.535Z,7.15
2018-06-15T08:17:36.170Z,6.25
2018-06-15T08:20:05.083Z,5.95
2018-06-15T08:22:33.538Z,5.15
2018-06-15T08:25:01.906Z,4.80
2018-06-15T08:27:30.271Z,5.40
2018-06-15T08:29:58.677Z,8.75
2018-06-15T08:32:27.440Z,9.13
2018-06-15T08:34:56.008Z,7.90
2018-06-15T08:37:24.454Z,8.70
2018-06-15T08:39:52.948Z,8.40
2018-06-15T08:42:21.422Z,10.08
2018-06-15T08:44:49.820Z,6.75
2018-06-15T08:47:18.233Z,5.40
2018-06-15T08:49:46.670Z,5.37
2018-06-15T08:52:15.163Z,5.08
2018-06-15T08:54:43.529Z,7.47
2018-06-15T08:57:12.010Z,7.80
2018-06-15T08:59:40.622Z,4.72
2018-06-15T09:02:09.010Z,3.87
2018-06-15T09:04:37.425Z,4.05
2018-06-15T09:07:05.910Z,5.28
2018-06-15T09:09:34.474Z,5.60
2018-06-15T09:12:02.836Z,4.42
2018-06-15T09:14:30.924Z,4.50
2018-06-15T09:16:59.599Z,5.37
2018-06-15T09:19:28.037Z,4.10
2018-06-15T09:21:56.530Z,4.37
2018-06-15T09:24:24.930Z,7.25
2018-06-15T09:26:53.415Z,6.87
2018-06-15T09:29:21.814Z,8.30
2018-06-15T09:31:50.204Z,8.03
2018-06-15T09:34:18.563Z,9.78
2018-06-15T09:36:46.982Z,9.53
2018-06-15T09:39:15.474Z,9.18
2018-06-15T09:41:43.858Z,8.35
2018-06-15T09:44:12.387Z,8.53
2018-06-15T09:46:40.833Z,8.70
2018-06-15T09:49:09.198Z,9.78
2018-06-15T09:51:37.569Z,10.63
2018-06-15T09:54:06.319Z,8.03
2018-06-15T09:56:34.684Z,8.78
2018-06-15T09:59:03.295Z,7.33
2018-06-15T10:01:31.919Z,9.83
2018-06-15T10:04:00.425Z,10.25
2018-06-15T10:06:28.826Z,10.18
2018-06-15T10:08:57.259Z,9.58
2018-06-15T10:11:25.726Z,8.78
2018-06-15T10:13:54.367Z,8.30
2018-06-15T10:16:22.915Z,9.38
2018-06-15T10:18:51.481Z,8.53
2018-06-15T10:21:20.013Z,7.78
2018-06-15T10:23:48.542Z,8.20
2018-06-15T10:26:16.909Z,7.80
2018-06-15T10:28:45.380Z,7.60
2018-06-15T10:31:15.019Z,6.75
2018-06-15T10:33:43.441Z,7.33
2018-06-15T10:36:12.050Z,7.80
2018-06-15T10:38:40.472Z,7.60
2018-06-15T10:41:08.886Z,8.43
2018-06-15T10:43:37.297Z,8.20
2018-06-15T10:46:05.708Z,7.25
2018-06-15T10:48:34.153Z,8.85
2018-06-15T10:51:02.662Z,8.18
2018-06-15T10:53:31.090Z,9.38
2018-06-15T10:55:59.525Z,6.90
2018-06-15T10:58:28.285Z,8.38
2018-06-15T11:00:59.235Z,10.18
2018-06-15T11:03:27.783Z,6.80
2018-06-15T11:05:56.331Z,7.42
2018-06-15T11:08:24.845Z,7.80
2018-06-15T11:10:53.837Z,8.65
2018-06-15T11:13:22.279Z,8.35
2018-06-15T11:15:50.748Z,8.65
2018-06-15T11:18:19.463Z,7.92
2018-06-15T11:20:47.992Z,8.15
2018-06-15T11:23:16.911Z,7.85
2018-06-15T11:25:45.529Z,6.92
2018-06-15T11:28:13.980Z,7.72
2018-06-15T11:30:42.563Z,6.97
2018-06-15T11:33:11.045Z,6.00
2018-06-15T11:35:40.088Z,7.12
2018-06-15T11:38:08.231Z,7.50
2018-06-15T11:40:36.620Z,7.85
2018-06-15T11:43:05.113Z,6.00
2018-06-15T11:45:33.593Z,6.75
2018-06-15T11:48:02.098Z,5.87
2018-06-15T11:50:30.518Z,5.05
2018-06-15T11:52:58.949Z,7.28
2018-06-15T11:55:27.378Z,6.90
2018-06-15T11:57:55.849Z,6.28
2018-06-15T12:00:24.279Z,4.97
2018-06-15T12:02:53.195Z,4.75
2018-06-15T12:05:21.651Z,4.20
2018-06-15T12:07:50.082Z,4.12
2018-06-15T12:10:18.731Z,5.50
2018-06-15T12:12:47.188Z,4.60
2018-06-15T12:15:15.897Z,3.85
2018-06-15T12:17:44.662Z,3.98
2018-06-15T12:20:13.113Z,3.22
2018-06-15T12:22:41.540Z,3.92
2018-06-15T12:25:10.040Z,3.87
2018-06-15T12:27:38.653Z,3.33
2018-06-15T12:30:07.082Z,3.87
2018-06-15T12:32:35.456Z,3.40
2018-06-15T12:35:03.627Z,3.10
2018-06-15T12:37:32.047Z,3.50
2018-06-15T12:40:00.733Z,3.70
2018-06-15T12:42:29.211Z,4.20
2018-06-15T12:44:57.752Z,3.60
2018-06-15T12:47:26.146Z,3.10
2018-06-15T12:49:54.792Z,3.40
2018-06-15T12:52:23.446Z,3.62
2018-06-15T12:54:51.880Z,3.80
2018-06-15T12:57:20.381Z,3.92
2018-06-15T12:59:48.878Z,3.47
2018-06-15T13:02:17.301Z,3.95
2018-06-15T13:04:45.916Z,3.50
2018-06-15T13:07:14.271Z,3.22
2018-06-15T13:09:42.836Z,3.35
2018-06-15T13:12:11.414Z,4.30
2018-06-15T13:14:39.826Z,5.58
2018-06-15T13:17:08.291Z,3.70
2018-06-15T13:19:36.781Z,3.20
2018-06-15T13:22:05.215Z,2.77
2018-06-15T13:24:35.160Z,4.25
2018-06-15T13:27:03.967Z,3.58
2018-06-15T13:29:32.639Z,3.67
2018-06-15T13:32:01.123Z,10.50
2018-06-15T13:34:29.727Z,8.83
2018-06-15T13:36:58.277Z,9.78
2018-06-15T13:39:26.686Z,11.18
2018-06-15T13:41:55.090Z,4.85
2018-06-15T13:44:23.537Z,3.25
2018-06-15T13:46:51.984Z,2.60
2018-06-15T13:49:20.374Z,2.80
2018-06-15T13:51:48.780Z,2.67
2018-06-15T13:54:17.325Z,3.35
2018-06-15T13:56:45.956Z,2.77
2018-06-15T13:59:14.363Z,2.42
2018-06-15T14:01:43.021Z,2.80
2018-06-15T14:04:11.403Z,2.40
2018-06-15T14:06:40.061Z,2.75
2018-06-15T14:09:09.250Z,2.20
2018-06-15T14:11:37.706Z,2.37
2018-06-15T14:14:06.606Z,3.40
2018-06-15T14:16:35.176Z,8.88
2018-06-15T14:19:03.585Z,7.65
2018-06-15T14:21:31.961Z,5.47
2018-06-15T14:24:00.331Z,9.90
2018-06-15T14:26:28.757Z,15.50
2018-06-15T14:28:57.173Z,3.52
2018-06-15T14:31:25.598Z,3.17
2018-06-15T14:33:54.080Z,4.33
2018-06-15T14:36:22.722Z,3.90
2018-06-15T14:38:51.918Z,3.70
2018-06-15T14:41:20.291Z,7.62
2018-06-15T14:43:48.697Z,6.28
2018-06-15T14:46:17.187Z,3.90
2018-06-15T14:48:45.639Z,2.50
2018-06-15T14:51:14.074Z,7.30
2018-06-15T14:53:42.472Z,4.80
2018-06-15T14:56:10.895Z,3.83
2018-06-15T14:58:39.307Z,4.33
2018-06-15T15:01:07.930Z,3.27
2018-06-15T15:03:36.490Z,3.20
2018-06-15T15:06:04.988Z,4.15
2018-06-15T15:08:33.722Z,4.30
2018-06-15T15:11:02.304Z,24.47
2018-06-15T15:13:30.728Z,3.90
2018-06-15T15:15:59.370Z,3.70
2018-06-15T15:18:27.802Z,4.28
2018-06-15T15:20:56.459Z,13.98
2018-06-15T15:23:24.862Z,19.57
2018-06-15T15:25:53.285Z,8.00
2018-06-15T15:28:21.682Z,5.95
2018-06-15T15:30:50.104Z,21.02
2018-06-15T15:33:18.589Z,17.00
2018-06-15T15:35:47.034Z,17.02
2018-06-15T15:38:16.144Z,16.35
2018-06-15T15:40:44.675Z,9.83
2018-06-15T15:43:13.091Z,10.25
2018-06-15T15:45:41.550Z,31.07
2018-06-15T15:48:10.701Z,7.62
2018-06-15T15:50:39.090Z,4.20
2018-06-15T15:53:07.553Z,3.00
2018-06-15T15:55:36.070Z,6.90
2018-06-15T15:58:04.925Z,7.90
2018-06-15T16:00:33.302Z,10.48
2018-06-15T16:03:02.033Z,10.80
2018-06-15T16:05:30.143Z,17.80
2018-06-15T16:07:58.551Z,21.48
2018-06-15T16:10:26.951Z,16.17
2018-06-15T16:12:55.382Z,11.28
2018-06-15T16:15:24.031Z,18.77
2018-06-15T16:17:52.190Z,19.57
2018-06-15T16:20:21.290Z,21.05
2018-06-15T16:22:49.714Z,26.65
2018-06-15T16:25:18.130Z,19.50
2018-06-15T16:27:46.808Z,16.85
2018-06-15T16:30:15.220Z,20.35
2018-06-15T16:32:43.761Z,26.80
2018-06-15T16:35:12.190Z,17.10
2018-06-15T16:37:40.852Z,11.60
2018-06-15T16:40:09.242Z,12.15
2018-06-15T16:42:37.701Z,16.90
2018-06-15T16:45:06.653Z,16.12
2018-06-15T16:47:35.121Z,14.53
2018-06-15T16:50:03.782Z,13.55
2018-06-15T16:52:32.714Z,26.42
2018-06-15T16:55:01.089Z,17.00
2018-06-15T16:57:29.526Z,9.58
2018-06-15T16:59:59.652Z,7.40
2018-06-15T17:02:28.026Z,8.75
2018-06-15T17:04:56.808Z,7.33
2018-06-15T17:07:25.256Z,7.97
2018-06-15T17:09:53.896Z,23.22
2018-06-15T17:12:22.357Z,16.15
2018-06-15T17:14:50.886Z,21.48
2018-06-15T17:17:19.366Z,28.38
2018-06-15T17:19:47.831Z,16.32
2018-06-15T17:22:16.270Z,16.02
2018-06-15T17:24:44.775Z,18.12
2018-06-15T17:27:14.339Z,20.37
2018-06-15T17:29:42.873Z,26.20
2018-06-15T17:32:11.326Z,42.13
2018-06-15T17:34:39.738Z,27.77
2018-06-15T17:37:08.129Z,24.95
2018-06-15T17:39:36.703Z,25.00
2018-06-15T17:42:05.259Z,26.85
2018-06-15T17:44:34.378Z,39.83
2018-06-15T17:47:02.843Z,31.62
2018-06-15T17:49:31.259Z,43.68
2018-06-15T17:51:59.697Z,28.65
2018-06-15T17:54:28.166Z,25.25
2018-06-15T17:56:56.610Z,25.20
2018-06-15T17:59:25.418Z,29.65
2018-06-15T18:01:53.848Z,38.50
2018-06-15T18:04:22.543Z,24.87
2018-06-15T18:06:51.132Z,28.55
2018-06-15T18:09:19.716Z,23.18
2018-06-15T18:11:48.144Z,21.62
2018-06-15T18:14:16.666Z,20.48
2018-06-15T18:16:45.101Z,42.13
2018-06-15T18:19:13.526Z,24.43
2018-06-15T18:21:42.035Z,34.40
2018-06-15T18:24:10.483Z,26.42
2018-06-15T18:26:39.069Z,17.35
2018-06-15T18:29:07.650Z,12.05
2018-06-15T18:31:36.374Z,8.60
2018-06-15T18:34:04.841Z,27.30
2018-06-15T18:36:33.229Z,41.02
2018-06-15T18:39:02.048Z,30.70
2018-06-15T18:41:30.502Z,33.88
2018-06-15T18:43:58.895Z,52.78
2018-06-15T18:46:27.438Z,39.92
2018-06-15T18:48:56.270Z,35.25
2018-06-15T18:51:31.243Z,38.83
2018-06-15T18:53:59.657Z,33.23
2018-06-15T18:56:28.357Z,23.47
2018-06-15T18:58:56.863Z,21.20
2018-06-15T19:01:25.377Z,25.37
2018-06-15T19:03:54.026Z,26.50
2018-06-15T19:06:22.174Z,18.55
2018-06-15T19:08:50.679Z,14.20
2018-06-15T19:11:19.058Z,23.90
2018-06-15T19:13:47.718Z,20.17
2018-06-15T19:16:16.119Z,17.65
2018-06-15T19:18:44.493Z,19.00
2018-06-15T19:21:12.987Z,17.30
2018-06-15T19:23:41.392Z,16.75
2018-06-15T19:26:09.779Z,17.42
2018-06-15T19:28:38.190Z,22.87
2018-06-15T19:31:06.601Z,21.12
2018-06-15T19:33:35.202Z,13.60
2018-06-15T19:36:03.942Z,13.80
2018-06-15T19:38:32.534Z,13.25
2018-06-15T19:41:01.033Z,13.90
2018-06-15T19:43:29.534Z,19.05
2018-06-15T19:45:57.924Z,20.20
2018-06-15T19:48:26.407Z,21.87
2018-06-15T19:50:54.870Z,13.32
2018-06-15T19:53:23.650Z,10.60
2018-06-15T19:55:52.169Z,32.75
2018-06-15T19:58:20.700Z,29.37
2018-06-15T20:00:49.126Z,26.48
2018-06-15T20:03:17.584Z,21.62
2018-06-15T20:05:46.279Z,20.95
2018-06-15T20:08:14.885Z,15.72
2018-06-15T20:10:43.500Z,16.87
2018-06-15T20:13:12.153Z,17.77
2018-06-15T20:15:40.555Z,14.23
2018-06-15T20:18:09.130Z,10.68
2018-06-15T20:20:37.690Z,12.33
2018-06-15T20:23:06.092Z,13.15
2018-06-15T20:25:34.583Z,10.78
2018-06-15T20:28:03.111Z,14.38
2018-06-15T20:30:31.950Z,15.30
2018-06-15T20:33:00.361Z,21.65
2018-06-15T20:35:28.885Z,25.62
2018-06-15T20:37:57.350Z,22.67
2018-06-15T20:40:25.809Z,23.57
2018-06-15T20:42:53.909Z,14.33
2018-06-15T20:45:22.331Z,15.45
2018-06-15T20:47:50.683Z,11.97
2018-06-15T20:50:19.083Z,13.40
2018-06-15T20:52:47.557Z,17.30
2018-06-15T20:55:16.358Z,18.32
2018-06-15T20:57:44.841Z,17.40
2018-06-15T21:00:13.274Z,15.35
2018-06-15T21:02:41.822Z,13.88
2018-06-15T21:05:10.245Z,12.60
2018-06-15T21:07:38.718Z,8.95
2018-06-15T21:10:07.156Z,8.75
2018-06-15T21:12:35.637Z,7.00
2018-06-15T21:15:04.728Z,7.67
2018-06-15T21:17:33.179Z,7.75
2018-06-15T21:20:01.677Z,7.40
2018-06-15T21:22:30.204Z,7.75
2018-06-15T21:24:58.706Z,6.72
2018-06-15T21:27:27.059Z,5.97
2018-06-15T21:29:55.452Z,7.78
2018-06-15T21:32:24.134Z,6.50
2018-06-15T21:34:52.793Z,6.10
2018-06-15T21:37:21.165Z,5.97
2018-06-15T21:39:49.677Z,6.62
2018-06-15T21:42:18.054Z,6.90
2018-06-15T21:44:46.182Z,8.70
2018-06-15T21:47:14.560Z,8.75
2018-06-15T21:49:43.041Z,8.73
2018-06-15T21:52:11.533Z,10.23
2018-06-15T21:54:40.033Z,7.58
2018-06-15T21:57:08.517Z,7.05
2018-06-15T21:59:36.945Z,8.55
2018-06-15T22:02:05.367Z,7.97
2018-06-15T22:04:33.762Z,7.53
2018-06-15T22:07:02.180Z,6.30
2018-06-15T22:09:30.652Z,7.00
2018-06-15T22:11:59.153Z,6.20
2018-06-15T22:14:27.537Z,5.67
2018-06-15T22:16:55.967Z,5.33
2018-06-15T22:19:24.815Z,5.30
2018-06-15T22:21:53.931Z,6.50
2018-06-15T22:24:23.114Z,6.35
2018-06-15T22:26:51.742Z,5.12
2018-06-15T22:29:20.077Z,4.83
2018-06-15T22:31:48.828Z,4.63
2018-06-15T22:34:17.312Z,4.50
2018-06-15T22:36:45.699Z,4.60
2018-06-15T22:39:15.231Z,4.80
2018-06-15T22:41:43.923Z,8.40
2018-06-15T22:44:13.077Z,4.75
2018-06-15T22:46:42.961Z,6.37
2018-06-15T22:49:12.091Z,6.33
2018-06-15T22:51:41.178Z,5.37
2018-06-15T22:54:09.670Z,5.53
2018-06-15T22:56:38.234Z,4.80
2018-06-15T22:59:06.673Z,4.80
2018-06-15T23:01:35.509Z,5.12
2018-06-15T23:04:03.996Z,5.40
2018-06-15T23:06:32.752Z,4.65
2018-06-15T23:09:01.655Z,4.90
2018-06-15T23:11:30.069Z,5.40
2018-06-15T23:13:58.453Z,5.12
2018-06-15T23:16:27.102Z,4.87
2018-06-15T23:18:55.519Z,5.17
2018-06-15T23:21:23.959Z,4.80
2018-06-15T23:23:52.358Z,5.17
2018-06-15T23:26:21.035Z,5.20
2018-06-15T23:28:49.404Z,4.40
2018-06-15T23:31:18.073Z,4.63
2018-06-15T23:33:46.430Z,4.53
2018-06-15T23:36:14.877Z,4.60
2018-06-15T23:38:43.226Z,4.37
2018-06-15T23:41:11.891Z,4.47
2018-06-15T23:43:40.069Z,5.17
2018-06-15T23:46:08.679Z,4.80
2018-06-15T23:48:37.166Z,4.70
2018-06-15T23:51:05.950Z,4.40
2018-06-15T23:53:34.458Z,5.23
2018-06-15T23:56:02.906Z,4.97
2018-06-15T23:58:31.322Z,4.47
